createdAt,value
2023-09-17T00:01:37.417Z,14.40
2023-09-17T00:04:43.072Z,14.15
2023-09-17T00:07:50.537Z,14.70
2023-09-17T00:10:57.830Z,13.78
2023-09-17T00:14:03.961Z,14.18
2023-09-17T00:17:10.087Z,14.13
2023-09-17T00:20:18.667Z,14.70
2023-09-17T00:23:25.053Z,13.58
2023-09-17T00:26:30.796Z,14.23
2023-09-17T00:29:37.845Z,14.68
2023-09-17T00:32:43.017Z,14.18
2023-09-17T00:35:49.767Z,13.65
2023-09-17T00:38:55.937Z,14.78
2023-09-17T00:42:01.590Z,15.15
2023-09-17T00:45:07.957Z,15.03
2023-09-17T00:48:13.845Z,14.98
2023-09-17T00:51:19.434Z,14.35
2023-09-17T00:54:25.532Z,14.10
2023-09-17T00:57:30.764Z,14.43
2023-09-17T01:00:36.617Z,14.50
2023-09-17T01:03:42.237Z,14.73
2023-09-17T01:06:50.180Z,14.75
2023-09-17T01:09:55.820Z,14.65
2023-09-17T01:13:01.186Z,13.50
2023-09-17T01:16:07.466Z,14.53
2023-09-17T01:19:13.096Z,13.53
2023-09-17T01:22:25.026Z,14.45
2023-09-17T01:25:57.074Z,15.10
2023-09-17T01:29:04.047Z,14.70
2023-09-17T01:32:09.190Z,14.85
2023-09-17T01:35:15.441Z,14.50
2023-09-17T01:38:21.740Z,14.25
2023-09-17T01:41:28.512Z,15.23
2023-09-17T01:44:37.026Z,14.10
2023-09-17T01:47:44.011Z,13.22
2023-09-17T01:50:50.763Z,14.73
2023-09-17T01:53:57.945Z,14.45
2023-09-17T01:56:58.197Z,14.45
2023-09-17T02:00:03.841Z,14.25
2023-09-17T02:03:11.780Z,14.73
2023-09-17T02:06:18.220Z,14.87
2023-09-17T02:09:25.909Z,14.15
2023-09-17T02:12:31.972Z,15.13
2023-09-17T02:15:38.641Z,14.55
2023-09-17T02:18:44.289Z,14.70
2023-09-17T02:21:49.948Z,15.40
2023-09-17T02:24:56.729Z,15.50
2023-09-17T02:28:02.781Z,14.83
2023-09-17T02:31:08.135Z,16.45
2023-09-17T02:34:14.338Z,15.55
2023-09-17T02:37:22.098Z,15.03
2023-09-17T02:40:32.068Z,15.18
2023-09-17T02:43:38.559Z,15.60
2023-09-17T02:46:45.029Z,15.05
2023-09-17T02:49:51.083Z,16.30
2023-09-17T02:52:57.014Z,16.32
2023-09-17T02:56:03.282Z,16.20
2023-09-17T02:59:09.338Z,16.05
2023-09-17T03:02:14.921Z,15.35
2023-09-17T03:05:23.903Z,15.55
2023-09-17T03:08:30.708Z,15.60
2023-09-17T03:11:36.072Z,15.65
2023-09-17T03:14:43.323Z,15.30
2023-09-17T03:17:52.276Z,15.38
2023-09-17T03:21:01.199Z,14.98
2023-09-17T03:24:07.039Z,15.72
2023-09-17T03:27:12.192Z,16.32
2023-09-17T03:30:20.089Z,15.03
2023-09-17T03:33:27.288Z,15.10
2023-09-17T03:36:34.173Z,15.58
2023-09-17T03:39:40.940Z,15.88
2023-09-17T03:42:46.081Z,15.23
2023-09-17T03:45:53.436Z,15.68
2023-09-17T03:48:59.863Z,15.50
2023-09-17T03:52:06.912Z,15.08
2023-09-17T03:55:16.221Z,16.70
2023-09-17T03:58:21.823Z,15.58
2023-09-17T04:01:28.477Z,15.03
2023-09-17T04:04:33.421Z,15.08
2023-09-17T04:07:40.137Z,15.32
2023-09-17T04:10:47.024Z,15.48
2023-09-17T04:13:53.314Z,16.35
2023-09-17T04:16:59.410Z,15.43
2023-09-17T04:20:05.595Z,15.85
2023-09-17T04:23:15.236Z,15.20
2023-09-17T04:26:20.302Z,15.25
2023-09-17T04:29:27.222Z,15.95
2023-09-17T04:32:32.547Z,15.38
2023-09-17T04:35:39.025Z,15.45
2023-09-17T04:38:44.378Z,14.93
2023-09-17T04:41:50.643Z,14.95
2023-09-17T04:44:58.498Z,15.30
2023-09-17T04:48:04.412Z,15.40
2023-09-17T04:51:09.547Z,15.68
2023-09-17T04:54:15.214Z,16.10
2023-09-17T04:57:21.063Z,15.25
2023-09-17T05:00:28.902Z,14.47
2023-09-17T05:03:34.210Z,15.95
2023-09-17T05:06:40.169Z,15.68
2023-09-17T05:09:46.325Z,15.75
2023-09-17T05:12:51.903Z,16.07
2023-09-17T05:15:57.725Z,16.73
2023-09-17T05:19:02.610Z,16.10
2023-09-17T05:22:08.504Z,16.65
2023-09-17T05:25:16.511Z,15.95
2023-09-17T05:28:22.197Z,16.02
2023-09-17T05:31:29.121Z,16.30
2023-09-17T05:34:35.773Z,16.07
2023-09-17T05:37:42.410Z,14.98
2023-09-17T05:40:48.833Z,16.17
2023-09-17T05:43:55.366Z,16.27
2023-09-17T05:47:02.958Z,16.07
2023-09-17T05:50:09.190Z,16.93
2023-09-17T05:53:16.607Z,16.57
2023-09-17T05:56:23.588Z,15.95
2023-09-17T05:59:32.390Z,16.12
2023-09-17T06:02:39.579Z,16.50
2023-09-17T06:05:48.307Z,15.83
2023-09-17T06:08:57.859Z,16.27
2023-09-17T06:12:05.169Z,15.13
2023-09-17T06:15:12.243Z,15.75
2023-09-17T06:18:19.648Z,15.25
2023-09-17T06:21:24.882Z,14.83
2023-09-17T06:24:31.149Z,14.70
2023-09-17T06:27:43.577Z,13.98
2023-09-17T06:30:50.870Z,14.70
2023-09-17T06:33:56.818Z,14.63
2023-09-17T06:37:04.403Z,15.40
2023-09-17T06:40:11.398Z,13.72
2023-09-17T06:43:17.250Z,14.70
2023-09-17T06:46:22.959Z,14.15
2023-09-17T06:49:30.842Z,14.60
2023-09-17T06:52:37.744Z,14.70
2023-09-17T06:55:44.126Z,13.43
2023-09-17T06:58:52.954Z,14.07
2023-09-17T07:01:59.777Z,13.55
2023-09-17T07:05:07.851Z,13.45
2023-09-17T07:08:15.245Z,14.10
2023-09-17T07:11:20.845Z,13.32
2023-09-17T07:14:27.496Z,13.32
2023-09-17T07:17:35.147Z,13.22
2023-09-17T07:20:41.535Z,12.80
2023-09-17T07:23:50.612Z,14.03
2023-09-17T07:26:56.573Z,13.62
2023-09-17T07:30:02.093Z,12.15
2023-09-17T07:33:07.431Z,12.73
2023-09-17T07:36:15.159Z,11.57
2023-09-17T07:39:20.156Z,12.07
2023-09-17T07:42:24.890Z,11.55
2023-09-17T07:45:30.869Z,11.18
2023-09-17T07:48:37.021Z,11.78
2023-09-17T07:51:42.175Z,10.72
2023-09-17T07:54:55.952Z,11.63
2023-09-17T07:58:03.182Z,11.25
2023-09-17T08:01:11.294Z,11.12
2023-09-17T08:04:17.867Z,10.70
2023-09-17T08:07:25.061Z,10.78
2023-09-17T08:10:30.982Z,9.15
2023-09-17T08:13:35.814Z,9.93
2023-09-17T08:16:44.327Z,9.30
2023-09-17T08:19:50.377Z,9.68
2023-09-17T08:22:57.380Z,8.90
2023-09-17T08:26:03.270Z,8.50
2023-09-17T08:29:13.929Z,7.62
2023-09-17T08:32:21.837Z,8.13
2023-09-17T08:35:27.409Z,8.18
2023-09-17T08:38:33.201Z,7.62
2023-09-17T08:41:41.446Z,8.28
2023-09-17T08:44:47.824Z,7.60
2023-09-17T08:47:54.701Z,6.37
2023-09-17T08:51:06.894Z,6.40
2023-09-17T08:54:28.124Z,5.85
2023-09-17T08:57:36.637Z,6.45
2023-09-17T09:00:41.930Z,6.03
2023-09-17T09:03:49.634Z,6.67
2023-09-17T09:06:56.722Z,6.60
2023-09-17T09:10:02.544Z,6.62
2023-09-17T09:13:09.197Z,5.95
2023-09-17T09:16:15.841Z,6.55
2023-09-17T09:19:20.839Z,6.05
2023-09-17T09:22:27.985Z,6.25
2023-09-17T09:25:36.901Z,5.97
2023-09-17T09:28:48.978Z,5.62
2023-09-17T09:31:56.497Z,5.37
2023-09-17T09:35:03.226Z,5.87
2023-09-17T09:38:09.523Z,5.58
2023-09-17T09:41:16.721Z,5.22
2023-09-17T09:44:23.874Z,4.65
2023-09-17T09:47:31.372Z,5.12
2023-09-17T09:50:41.390Z,5.25
2023-09-17T09:53:47.748Z,4.60
2023-09-17T09:56:59.579Z,5.50
2023-09-17T10:00:11.057Z,5.35
2023-09-17T10:03:17.733Z,6.15
2023-09-17T10:06:23.780Z,4.70
2023-09-17T10:09:30.062Z,4.83
2023-09-17T10:12:36.698Z,4.70
2023-09-17T10:15:42.271Z,4.40
2023-09-17T10:18:51.400Z,3.92
2023-09-17T10:21:57.679Z,3.75
2023-09-17T10:25:03.601Z,4.03
2023-09-17T10:28:09.125Z,4.85
2023-09-17T10:31:15.019Z,5.12
2023-09-17T10:34:22.217Z,4.80
2023-09-17T10:37:27.018Z,4.12
2023-09-17T10:40:32.815Z,4.30
2023-09-17T10:43:37.384Z,4.15
2023-09-17T10:46:47.346Z,4.83
2023-09-17T10:49:55.295Z,4.42
2023-09-17T10:53:00.312Z,4.35
2023-09-17T10:56:24.707Z,4.35
2023-09-17T10:59:31.491Z,4.60
2023-09-17T11:02:38.943Z,4.70
2023-09-17T11:05:44.812Z,5.25
2023-09-17T11:08:51.105Z,4.25
2023-09-17T11:11:56.862Z,3.85
2023-09-17T11:15:02.854Z,4.20
2023-09-17T11:18:16.130Z,4.72
2023-09-17T11:21:23.463Z,4.22
2023-09-17T11:24:31.274Z,3.62
2023-09-17T11:27:36.786Z,3.90
2023-09-17T11:30:42.555Z,3.80
2023-09-17T11:33:47.123Z,4.47
2023-09-17T11:36:54.989Z,4.10
2023-09-17T11:40:08.738Z,4.33
2023-09-17T11:43:15.354Z,3.85
2023-09-17T11:46:21.573Z,3.90
2023-09-17T11:49:31.139Z,4.20
2023-09-17T11:52:38.858Z,4.15
2023-09-17T11:55:44.261Z,3.90
2023-09-17T11:58:52.637Z,3.87
2023-09-17T12:02:08.927Z,4.03
2023-09-17T12:05:15.397Z,4.05
2023-09-17T12:08:21.561Z,3.98
2023-09-17T12:11:34.911Z,3.83
2023-09-17T12:14:41.385Z,3.90
2023-09-17T12:17:51.854Z,4.22
2023-09-17T12:21:10.560Z,4.03
2023-09-17T12:24:20.068Z,3.92
2023-09-17T12:27:42.845Z,4.30
2023-09-17T12:30:50.452Z,4.45
2023-09-17T12:33:56.330Z,4.58
2023-09-17T12:37:03.220Z,4.33
2023-09-17T12:40:14.654Z,4.28
2023-09-17T12:43:20.836Z,4.72
2023-09-17T12:46:27.372Z,4.42
2023-09-17T12:49:35.123Z,3.80
2023-09-17T12:52:44.183Z,4.83
2023-09-17T12:55:49.512Z,4.80
2023-09-17T12:58:55.008Z,4.72
2023-09-17T13:02:09.287Z,4.80
2023-09-17T13:05:17.638Z,4.67
2023-09-17T13:08:27.094Z,4.60
2023-09-17T13:11:32.901Z,4.53
2023-09-17T13:14:40.511Z,4.85
2023-09-17T13:17:47.521Z,4.97
2023-09-17T13:20:54.453Z,4.40
2023-09-17T13:24:01.720Z,5.33
2023-09-17T13:27:08.266Z,4.50
2023-09-17T13:30:14.764Z,4.90
2023-09-17T13:33:22.939Z,4.50
2023-09-17T13:36:30.001Z,4.42
2023-09-17T13:39:35.296Z,4.58
2023-09-17T13:42:39.984Z,4.30
2023-09-17T13:45:46.573Z,4.53
2023-09-17T13:48:53.316Z,4.62
2023-09-17T13:51:59.820Z,4.65
2023-09-17T13:55:06.000Z,4.65
2023-09-17T13:58:12.579Z,4.83
2023-09-17T14:01:20.273Z,4.70
2023-09-17T14:04:26.430Z,4.62
2023-09-17T14:07:32.441Z,5.10
2023-09-17T14:10:37.504Z,5.03
2023-09-17T14:13:44.476Z,4.80
2023-09-17T14:16:47.890Z,5.03
2023-09-17T14:19:52.499Z,5.50
2023-09-17T14:22:59.097Z,4.47
2023-09-17T14:26:05.038Z,4.53
2023-09-17T14:29:10.311Z,4.65
2023-09-17T14:32:15.656Z,4.70
2023-09-17T14:35:22.224Z,4.97
2023-09-17T14:38:27.055Z,4.58
2023-09-17T14:41:32.147Z,4.65
2023-09-17T14:44:39.646Z,4.97
2023-09-17T14:47:52.098Z,4.60
2023-09-17T14:50:59.456Z,5.15
2023-09-17T14:54:05.660Z,5.10
2023-09-17T14:57:13.712Z,4.58
2023-09-17T15:00:25.614Z,5.47
2023-09-17T15:03:33.929Z,4.75
2023-09-17T15:06:39.501Z,5.12
2023-09-17T15:09:45.876Z,4.80
2023-09-17T15:12:55.186Z,5.33
2023-09-17T15:16:06.222Z,5.20
2023-09-17T15:19:14.089Z,5.70
2023-09-17T15:22:20.326Z,5.50
2023-09-17T15:25:27.382Z,5.37
2023-09-17T15:28:35.318Z,5.90
2023-09-17T15:31:42.740Z,5.62
2023-09-17T15:34:48.926Z,6.08
2023-09-17T15:37:55.796Z,6.40
2023-09-17T15:41:05.782Z,5.87
2023-09-17T15:44:14.617Z,6.03
2023-09-17T15:47:19.675Z,6.50
2023-09-17T15:50:26.895Z,5.33
2023-09-17T15:53:32.322Z,6.08
2023-09-17T15:56:37.243Z,6.37
2023-09-17T15:59:42.141Z,6.72
2023-09-17T16:02:49.144Z,6.47
2023-09-17T16:05:56.395Z,7.80
2023-09-17T16:09:02.770Z,8.28
2023-09-17T16:12:08.280Z,7.67
2023-09-17T16:15:14.419Z,8.08
2023-09-17T16:18:20.849Z,9.00
2023-09-17T16:21:27.094Z,9.25
2023-09-17T16:24:33.983Z,17.45
2023-09-17T16:27:39.377Z,19.10
2023-09-17T16:30:45.304Z,12.35
2023-09-17T16:33:52.919Z,14.28
2023-09-17T16:36:59.644Z,15.78
2023-09-17T16:40:05.694Z,18.35
2023-09-17T16:43:12.309Z,18.30
2023-09-17T16:46:20.298Z,18.65
2023-09-17T16:49:24.911Z,20.70
2023-09-17T16:52:32.353Z,19.85
2023-09-17T16:55:38.770Z,19.20
2023-09-17T16:58:45.813Z,20.08
2023-09-17T17:01:51.281Z,19.45
2023-09-17T17:04:58.393Z,19.30
2023-09-17T17:08:03.803Z,17.67
2023-09-17T17:11:10.776Z,17.85
2023-09-17T17:14:17.156Z,16.85
2023-09-17T17:17:23.703Z,17.85
2023-09-17T17:20:31.870Z,17.02
2023-09-17T17:23:37.653Z,16.07
2023-09-17T17:26:43.242Z,16.65
2023-09-17T17:29:51.585Z,15.60
2023-09-17T17:32:56.821Z,15.55
2023-09-17T17:36:03.004Z,15.08
2023-09-17T17:39:11.327Z,16.35
2023-09-17T17:42:16.757Z,19.23
2023-09-17T17:45:22.847Z,21.25
2023-09-17T17:48:28.865Z,25.80
2023-09-17T17:51:33.795Z,24.98
2023-09-17T17:54:40.495Z,22.58
2023-09-17T17:57:46.956Z,21.82
2023-09-17T18:00:53.579Z,20.97
2023-09-17T18:04:00.867Z,19.80
2023-09-17T18:07:07.446Z,19.98
2023-09-17T18:10:14.398Z,20.17
2023-09-17T18:13:20.780Z,17.62
2023-09-17T18:16:26.871Z,18.57
2023-09-17T18:19:33.539Z,14.83
2023-09-17T18:22:39.839Z,14.03
2023-09-17T18:25:47.043Z,14.75
2023-09-17T18:28:55.268Z,14.83
2023-09-17T18:32:03.887Z,15.68
2023-09-17T18:35:09.546Z,17.82
2023-09-17T18:38:16.317Z,19.23
2023-09-17T18:41:24.304Z,20.27
2023-09-17T18:44:31.254Z,22.40
2023-09-17T18:47:37.092Z,21.60
2023-09-17T18:50:42.916Z,21.65
2023-09-17T18:53:49.903Z,19.30
2023-09-17T18:56:56.734Z,19.65
2023-09-17T19:00:05.165Z,19.85
2023-09-17T19:03:10.547Z,17.73
2023-09-17T19:06:15.975Z,17.37
2023-09-17T19:09:23.346Z,16.67
2023-09-17T19:12:28.789Z,16.48
2023-09-17T19:15:33.778Z,14.73
2023-09-17T19:18:39.836Z,15.38
2023-09-17T19:21:44.785Z,14.98
2023-09-17T19:24:52.088Z,14.73
2023-09-17T19:27:59.197Z,14.85
2023-09-17T19:31:04.858Z,13.72
2023-09-17T19:34:10.723Z,13.98
2023-09-17T19:37:18.265Z,13.50
2023-09-17T19:40:25.357Z,13.00
2023-09-17T19:43:31.237Z,13.15
2023-09-17T19:46:39.808Z,12.68
2023-09-17T19:49:47.904Z,12.73
2023-09-17T19:52:54.474Z,13.05
2023-09-17T19:56:00.150Z,12.55
2023-09-17T19:59:09.689Z,11.68
2023-09-17T20:02:17.486Z,11.30
2023-09-17T20:05:23.645Z,12.05
2023-09-17T20:08:31.115Z,11.83
2023-09-17T20:11:37.373Z,11.78
2023-09-17T20:14:46.213Z,12.35
2023-09-17T20:17:52.614Z,12.53
2023-09-17T20:20:59.185Z,12.33
2023-09-17T20:24:05.619Z,11.78
2023-09-17T20:27:13.026Z,12.15
2023-09-17T20:30:23.445Z,12.07
2023-09-17T20:33:28.900Z,10.68
2023-09-17T20:36:35.707Z,12.45
2023-09-17T20:39:41.764Z,11.08
2023-09-17T20:42:48.462Z,12.82
2023-09-17T20:45:54.333Z,11.05
2023-09-17T20:49:01.391Z,12.47
2023-09-17T20:52:07.028Z,11.70
2023-09-17T20:55:14.533Z,11.28
2023-09-17T20:58:20.889Z,12.47
2023-09-17T21:01:26.764Z,11.22
2023-09-17T21:04:36.481Z,10.72
2023-09-17T21:07:42.478Z,11.75
2023-09-17T21:10:49.552Z,11.85
2023-09-17T21:13:56.866Z,11.75
2023-09-17T21:17:03.275Z,12.80
2023-09-17T21:20:09.478Z,12.25
2023-09-17T21:23:16.962Z,12.50
2023-09-17T21:26:27.112Z,12.95
2023-09-17T21:29:34.300Z,12.55
2023-09-17T21:32:40.886Z,12.28
2023-09-17T21:35:48.470Z,12.47
2023-09-17T21:38:54.205Z,11.93
2023-09-17T21:42:00.390Z,12.65
2023-09-17T21:45:05.937Z,11.97
2023-09-17T21:48:13.029Z,11.97
2023-09-17T21:51:19.500Z,12.73
2023-09-17T21:54:24.823Z,12.93
2023-09-17T21:57:35.610Z,13.22
2023-09-17T22:00:41.265Z,13.18
2023-09-17T22:03:49.298Z,13.75
2023-09-17T22:06:57.047Z,13.28
2023-09-17T22:10:03.038Z,13.78
2023-09-17T22:13:10.109Z,14.40
2023-09-17T22:16:15.096Z,15.25
2023-09-17T22:19:21.409Z,14.90
2023-09-17T22:22:29.044Z,13.70
2023-09-17T22:25:36.528Z,13.58
2023-09-17T22:28:44.691Z,14.43
2023-09-17T22:31:51.433Z,14.43
2023-09-17T22:34:57.479Z,14.18
2023-09-17T22:38:03.132Z,15.20
2023-09-17T22:41:09.102Z,14.43
2023-09-17T22:44:24.113Z,14.87
2023-09-17T22:47:22.692Z,14.50
2023-09-17T22:50:29.353Z,15.05
2023-09-17T22:53:35.059Z,15.10
2023-09-17T22:56:41.508Z,15.03
2023-09-17T22:59:46.786Z,15.28
2023-09-17T23:02:53.241Z,14.98
2023-09-17T23:05:59.070Z,14.98
2023-09-17T23:09:07.073Z,15.13
2023-09-17T23:12:13.869Z,14.20
2023-09-17T23:15:14.621Z,15.00
2023-09-17T23:18:22.717Z,14.30
2023-09-17T23:21:30.249Z,13.88
2023-09-17T23:24:37.292Z,14.33
2023-09-17T23:27:42.847Z,14.03
2023-09-17T23:30:50.654Z,14.45
2023-09-17T23:33:57.548Z,13.58
2023-09-17T23:37:05.725Z,13.65
2023-09-17T23:40:12.842Z,13.38
2023-09-17T23:43:18.263Z,13.35
2023-09-17T23:46:24.154Z,12.98
2023-09-17T23:49:31.974Z,13.45
2023-09-17T23:52:38.092Z,14.00
2023-09-17T23:55:44.056Z,14.03
2023-09-17T23:58:50.763Z,13.32
